TAF Text Data
IDs:
Format:
Raw Decoded Include METAR

Data at: 1528 UTC 14 Apr 2021

Region: TOP
KATL 141357Z 1414/1518 25005KT P6SM FEW100 SCT250
  FM141800 23011KT P6SM SCT050 BKN100
  FM142200 24011KT P6SM VCSH SCT025 BKN050
  PROB30 1423/1502 6SM -SHRA BKN025
  FM150200 25008KT P6SM VCSH OVC025
  FM150600 26008KT P6SM VCSH BKN008 OVC012
  FM151000 31008KT P6SM BKN007
  FM151500 33010KT P6SM BKN025


KBOS 141505Z 1415/1518 09010KT P6SM SCT060
  FM150000 13007KT P6SM BKN120
  FM150600 14004KT P6SM BKN060
  FM151100 11007KT P6SM BKN050
  FM151600 10010G19KT P6SM BKN040


KBWI 141500Z 1415/1518 23006KT P6SM -SHRA SCT080 BKN120 OVC250
  FM141800 24004KT 6SM -SHRA OVC030
  FM150000 21004KT 4SM -SHRA BKN008
  FM150300 19004KT 3SM BR OVC003
  FM151400 29005KT 3SM BR SCT008
  FM151500 29006KT P6SM BKN040


KCLE 141420Z 1414/1518 00000KT P6SM FEW160 SCT250
  FM141500 25005KT P6SM FEW050
  FM142200 32007KT P6SM BKN060
  FM151600 28010KT P6SM VCSH BKN035


KCLT 141356Z 1414/1518 17005KT P6SM FEW250
  FM141600 21008KT P6SM SCT200
  FM142000 22011G17KT P6SM FEW080 BKN200
  FM150200 25008KT P6SM VCSH OVC060
  PROB30 1502/1506 4SM -SHRA BR OVC035
  FM150600 23005KT P6SM VCSH OVC035
  FM151200 31006KT P6SM BKN050


KCVG 141459Z 1415/1518 VRB04KT P6SM OVC120
  FM141800 26009KT P6SM BKN120 OVC250
  FM150100 30006KT P6SM SCT120 BKN250
  FM151300 32007KT P6SM SCT090


KDCA 141500Z 1415/1518 17009KT P6SM -SHRA OVC090
  FM141800 VRB03KT P6SM -SHRA BKN030
  FM142100 34004KT 4SM -SHRA OVC010
  FM150400 VRB03KT 3SM BR OVC005
  FM151200 29004KT 4SM BR OVC015
  FM151600 30007KT P6SM SCT080


KDEN 141456Z 1415/1518 23007KT P6SM BKN035 OVC060
  FM141600 27008KT P6SM SCT050 SCT120
  FM142000 14012G25KT P6SM SCT050 BKN120
  FM150200 15012G22KT P6SM VCSH BKN030 OVC120
  FM151500 13014G24KT P6SM BKN050 BKN120


KDFW 141459Z 1415/1518 03013KT P6SM OVC025
  TEMPO 1415/1418 OVC015
  FM150000 05012KT P6SM VCSH BKN014
  FM150400 05011KT 6SM BR VCTS OVC012CB
  FM150800 06010KT 5SM BR VCSH OVC010
  FM151300 07011KT P6SM OVC012


KDTW 141507Z 1415/1518 20010KT P6SM BKN060 BKN200
  FM141900 26013KT P6SM SCT060
  FM150100 30010KT P6SM OVC060
  FM150800 30007KT P6SM SCT025 OVC040
  PROB30 1510/1513 4SM -RA OVC025
  FM151300 30010KT 6SM -RA OVC025


KEWR 141430Z 1415/1518 27004KT P6SM FEW080 BKN250
  FM141600 25007KT P6SM SCT080 BKN250
  FM141800 22008KT P6SM BKN060
  FM150000 20006KT P6SM VCSH BKN020 OVC040
  FM150300 14005KT 5SM -RA BR OVC010
  FM150600 12005KT 3SM -RA BR OVC008
  FM151200 10009KT 2SM -RA BR OVC008


KFLL 141439Z 1415/1518 10015KT P6SM FEW025
  FM150600 VRB05KT P6SM SKC
  FM151500 15012KT P6SM SCT035


KIAD 141500Z 1415/1518 23007KT P6SM -SHRA BKN070 OVC110
  FM141800 33005KT P6SM -SHRA OVC025
  FM142100 00000KT 3SM -SHRA OVC010
  FM150300 00000KT 2SM BR OVC003
  FM151200 30005KT 5SM BR SCT025


KIAH 141500Z 1415/1518 35003KT 3SM -RA BR OVC005
  TEMPO 1415/1417 1SM SHRA BR OVC003
  FM141700 25005KT P6SM VCSH BKN015 BKN025
  FM141900 36007KT P6SM VCTS SCT015 BKN025CB
  FM150400 03009KT 6SM BR VCSH SCT007 OVC015
  FM151200 04011KT 6SM BR BKN007 OVC015


KJFK 141430Z 1415/1518 24006KT P6SM FEW080 SCT250
  FM141600 21010KT P6SM SCT070 BKN250
  FM141900 18011KT P6SM BKN060
  FM150100 14006KT P6SM VCSH SCT008 OVC020
  FM150400 13008KT 4SM -RA BR OVC008
  FM151200 12010KT 2SM -RA BR OVC008


KLAS 141440Z 1415/1518 20013G22KT P6SM SKC
  FM141700 25017G27KT P6SM SCT250
  FM150500 31011KT P6SM FEW100


KLAX 141459Z 1415/1518 29008KT P6SM FEW022 BKN026 BKN045
  FM142000 27012KT P6SM SCT015 BKN035
  FM150400 26006KT P6SM BKN025
  FM151000 VRB03KT P6SM OVC015


KLGA 141430Z 1415/1518 34003KT P6SM FEW060 SCT250
  FM141600 28007KT P6SM SCT060 BKN250
  FM141900 21010KT P6SM BKN060
  FM150100 13006KT P6SM VCSH SCT010 OVC020
  FM150400 11006KT 5SM -RA BR OVC010
  FM150900 11008KT 4SM -RA BR OVC009
  FM151200 09010KT 3SM -RA BR OVC009


KMCO 141504Z 1415/1518 14009KT P6SM FEW030 FEW300
  FM150200 15008KT P6SM FEW120 SCT300
  FM150600 19005KT P6SM SCT120
  FM151500 21011KT P6SM FEW060 BKN100


KMDW 141454Z 1415/1518 29012G21KT P6SM BKN040
  FM151000 32014G24KT P6SM BKN020


KMEM 141452Z 1415/1518 03010KT 5SM -SHRA BR SCT035 BKN040
  FM141800 03010KT P6SM VCSH OVC015
  FM150100 03006KT P6SM BKN050
  FM150600 01007KT P6SM BKN080
  FM151300 02010KT P6SM SCT100


KMIA 141439Z 1415/1518 09015KT P6SM FEW030
  FM150500 VRB03KT P6SM SKC
  FM151400 15012KT P6SM SCT025


KMSP 141448Z 1415/1518 31008KT P6SM OVC012
  FM141700 31012G20KT P6SM OVC018
  FM150400 32011KT P6SM SCT009 BKN020
  FM151500 34008KT P6SM BKN020


KORD 141454Z 1415/1518 29012G21KT P6SM BKN040
  FM151000 32014G24KT P6SM BKN020


KPDX 141457Z 1415/1512 31006KT P6SM SKC
  FM142200 35011KT P6SM SKC
  FM150400 32008KT P6SM SKC
  FM151000 34003KT P6SM SKC


KPHL 141514Z 1415/1518 23006KT P6SM BKN120
  FM141700 23006KT P6SM -SHRA SCT035 OVC060
  FM142100 22006KT 5SM -SHRA BR OVC020
  FM150100 21006KT 4SM BR OVC010
  FM150500 VRB03KT 2SM BR OVC004
  FM151200 07004KT 2SM -RA BR OVC006


KPHX 141452Z 1415/1518 12005KT P6SM SKC
  FM141700 19007KT P6SM SKC
  FM142000 23010KT P6SM FEW250
  FM142300 26010G18KT P6SM BKN250
  FM150300 25008KT P6SM BKN250


KPIT 141449Z 1415/1518 00000KT P6SM SCT050 BKN100
  FM141800 27010KT P6SM BKN060
  FM150600 31008KT P6SM BKN040


KSAN 141438Z 1415/1518 26005KT P6SM SCT028 BKN040
  FM141700 21006KT P6SM SCT028 BKN040
  FM142000 26010KT P6SM SCT040
  FM150200 29005KT P6SM BKN035


KSEA 141504Z 1415/1518 02009KT P6SM SKC
  FM142000 35012G22KT P6SM SKC
  FM150300 01006KT P6SM SKC


KSFO 141451Z 1415/1518 VRB05KT P6SM FEW009 FEW015
  FM141700 VRB06KT P6SM FEW020
  FM142000 28015KT P6SM FEW030
  FM150500 25008KT P6SM FEW008
  FM151200 24004KT P6SM SCT008


KSLC 141453Z 1415/1518 18010G20KT P6SM VCSH BKN060 OVC900
  FM141600 32008KT P6SM VCSH BKN050 OVC070
  FM141700 34011KT P6SM -SHRA BKN040 OVC050
  TEMPO 1419/1423 5SM -RA BKN025
  FM150000 35008KT P6SM VCSH OVC050


KSTL 141458Z 1415/1518 32007KT P6SM SCT250
  FM141700 31011G17KT P6SM BKN250
  FM150000 32011KT P6SM BKN100
  FM150600 32006KT P6SM SKC


KTPA 141500Z 1415/1518 15009KT P6SM FEW250
  FM141700 21011KT P6SM FEW250
  FM142100 25010KT P6SM SCT250
  FM150300 VRB04KT P6SM FEW150 BKN250
  FM151500 21012KT P6SM FEW020 SCT250